Time;durP1;ratioP1;P1;durP2;ratioP2;P2;SDS_P1;SDS_P2;PMS_P1;PMS_P2;Temp;Humidity;BMP_temperature;BMP_pressure;BME280_temperature;BME280_humidity;BME280_pressure;Samples;Min_cycle;Max_cycle;Signal;HPM_P1;HPM_P2
2022/03/24 00:02:15;;;;;;;41.00;18.30;;;;;;;17.18;34.62;102845.53;5072552;28;20029;-58
2022/03/24 00:04:40;;;;;;;37.23;17.17;;;;;;;17.14;34.77;102843.41;5073175;28;20040;-53
2022/03/24 00:07:06;;;;;;;45.60;18.15;;;;;;;17.09;34.89;102835.84;5073400;28;20053;-57
2022/03/24 00:09:32;;;;;;;40.97;17.63;;;;;;;17.03;34.86;102832.03;5073119;28;20061;-59
2022/03/24 00:11:58;;;;;;;35.78;16.90;;;;;;;16.97;34.89;102838.19;5073294;28;20059;-57
2022/03/24 00:14:23;;;;;;;37.80;16.73;;;;;;;16.98;34.89;102833.63;5073181;28;20041;-57
2022/03/24 00:16:49;;;;;;;41.40;16.60;;;;;;;16.99;35.28;102830.75;5072359;28;20101;-57
2022/03/24 00:19:19;;;;;;;39.45;17.42;;;;;;;16.96;35.44;102841.09;5073030;28;20036;-57
2022/03/24 00:21:45;;;;;;;43.22;16.67;;;;;;;16.87;35.45;102832.25;5072600;28;20457;-60
2022/03/24 00:24:11;;;;;;;34.40;17.13;;;;;;;16.81;35.72;102833.84;5073170;28;20051;-56
2022/03/24 00:26:37;;;;;;;37.45;16.33;;;;;;;16.75;35.81;102838.13;5070424;28;20092;-56
2022/03/24 00:29:03;;;;;;;36.17;15.75;;;;;;;16.77;35.94;102832.53;5074629;28;20033;-58
2022/03/24 00:31:29;;;;;;;37.53;16.13;;;;;;;16.71;35.54;102828.72;5088668;28;20624;-59
2022/03/24 00:33:55;;;;;;;41.08;16.98;;;;;;;16.71;36.13;102834.13;5072692;28;20057;-57
2022/03/24 00:36:21;;;;;;;38.90;16.88;;;;;;;16.71;36.32;102827.84;5089455;28;20040;-56
2022/03/24 00:38:52;;;;;;;40.97;17.80;;;;;;;16.63;36.45;102831.53;5081504;28;20035;-57
2022/03/24 00:41:19;;;;;;;43.60;16.98;;;;;;;16.55;36.53;102831.59;5080379;28;20051;-57
2022/03/24 00:43:48;;;;;;;43.20;17.27;;;;;;;16.49;36.77;102825.94;5090227;28;20029;-58
2022/03/24 00:46:15;;;;;;;36.03;16.75;;;;;;;16.48;36.81;102821.56;5089314;28;20055;-54
2022/03/24 00:48:41;;;;;;;33.90;15.98;;;;;;;16.49;36.92;102825.94;5082281;28;20061;-56
2022/03/24 00:51:07;;;;;;;39.93;16.40;;;;;;;16.53;36.97;102825.56;5094060;28;20037;-55
2022/03/24 00:53:32;;;;;;;35.72;17.25;;;;;;;16.43;36.99;102829.38;5083162;28;20044;-58
2022/03/24 00:55:59;;;;;;;42.97;18.30;;;;;;;16.45;36.92;102827.34;5087564;28;20057;-56
2022/03/24 00:58:25;;;;;;;33.25;16.02;;;;;;;16.38;37.23;102812.91;5090020;28;20285;-57
2022/03/24 01:00:50;;;;;;;34.90;16.10;;;;;;;16.28;37.59;102812.34;5081092;28;20047;-57
2022/03/24 01:03:16;;;;;;;42.57;16.87;;;;;;;16.29;37.58;102814.00;5092905;28;20099;-57
2022/03/24 01:05:41;;;;;;;34.37;17.57;;;;;;;16.26;37.69;102811.69;5083263;28;20033;-54
2022/03/24 01:08:08;;;;;;;39.08;17.23;;;;;;;16.18;37.81;102808.06;5086745;28;20116;-58
2022/03/24 01:10:36;;;;;;;35.77;16.43;;;;;;;16.24;37.78;102816.44;5091338;28;20037;-57
2022/03/24 01:13:03;;;;;;;37.08;16.52;;;;;;;16.20;38.08;102811.41;5080661;28;20035;-58
2022/03/24 01:15:30;;;;;;;34.13;16.30;;;;;;;16.17;37.92;102806.38;5092170;28;20041;-55
2022/03/24 01:18:00;;;;;;;38.67;16.55;;;;;;;16.15;38.33;102802.19;5084096;28;20037;-57
2022/03/24 01:20:29;;;;;;;35.58;16.27;;;;;;;16.15;38.37;102808.44;5086842;28;20055;-56
2022/03/24 01:22:56;;;;;;;40.03;16.63;;;;;;;16.06;38.62;102814.91;5074807;28;20195;-57
2022/03/24 01:25:23;;;;;;;37.92;17.98;;;;;;;16.04;38.78;102803.47;5092234;28;20047;-54
2022/03/24 01:27:51;;;;;;;43.95;17.70;;;;;;;16.04;38.77;102804.31;5084549;28;20033;-55
2022/03/24 01:30:17;;;;;;;44.47;17.63;;;;;;;15.98;38.91;102806.91;5083646;28;20101;-58
2022/03/24 01:32:45;;;;;;;39.63;17.65;;;;;;;16.02;38.86;102795.53;5095950;28;20036;-57
2022/03/24 01:35:11;;;;;;;39.05;17.33;;;;;;;16.06;38.96;102798.72;5077343;28;20033;-57
2022/03/24 01:37:37;;;;;;;48.15;17.17;;;;;;;15.87;39.33;102800.88;5082293;28;20040;-53
2022/03/24 01:40:08;;;;;;;41.05;16.92;;;;;;;15.72;39.65;102802.72;5086232;28;20056;-55
2022/03/24 01:42:34;;;;;;;42.05;18.30;;;;;;;15.55;40.40;102802.84;5083140;28;20104;-52
2022/03/24 01:45:00;;;;;;;37.40;18.52;;;;;;;15.57;40.48;102803.50;5092343;28;20418;-57
2022/03/24 01:47:27;;;;;;;41.97;17.50;;;;;;;15.63;40.49;102794.69;5079683;28;20032;-54
2022/03/24 01:49:58;;;;;;;42.58;18.00;;;;;;;15.62;40.52;102793.00;5088284;28;20093;-56
2022/03/24 01:52:25;;;;;;;41.83;18.30;;;;;;;15.38;41.30;102795.91;5088122;28;20044;-56
2022/03/24 01:54:56;;;;;;;43.80;17.80;;;;;;;15.35;42.05;102797.13;5079100;28;20059;-54
2022/03/24 01:57:24;;;;;;;57.78;19.73;;;;;;;15.44;42.00;102789.78;5063458;28;20040;-57
2022/03/24 01:59:51;;;;;;;48.50;19.85;;;;;;;15.31;42.28;102790.38;5088632;28;20037;-54
2022/03/24 02:02:17;;;;;;;54.85;20.27;;;;;;;15.35;42.38;102786.34;5086922;28;20041;-56
2022/03/24 02:04:43;;;;;;;51.97;19.45;;;;;;;15.34;42.55;102782.78;5080469;28;20067;-56
2022/03/24 02:07:10;;;;;;;49.53;19.77;;;;;;;15.30;42.77;102784.19;5091969;28;20040;-56
2022/03/24 02:09:37;;;;;;;47.13;19.58;;;;;;;15.18;43.14;102785.59;5081124;28;20499;-56
2022/03/24 02:12:04;;;;;;;44.30;20.20;;;;;;;15.15;43.42;102783.25;5086914;28;20048;-54
2022/03/24 02:14:30;;;;;;;47.28;20.20;;;;;;;15.23;43.21;102783.22;5088385;28;20040;-57
2022/03/24 02:16:56;;;;;;;51.80;21.92;;;;;;;15.20;43.41;102787.09;5079102;28;20119;-57
2022/03/24 02:19:25;;;;;;;54.25;20.83;;;;;;;15.24;43.57;102776.81;5091465;28;20037;-61
2022/03/24 02:21:56;;;;;;;48.97;21.70;;;;;;;15.20;43.73;102772.78;5083738;28;20099;-56
2022/03/24 02:24:25;;;;;;;46.60;20.17;;;;;;;15.23;43.89;102766.19;5083854;28;20041;-59
2022/03/24 02:26:52;;;;;;;51.47;21.50;;;;;;;15.16;44.30;102771.47;5091747;28;20062;-57
2022/03/24 02:29:21;;;;;;;49.05;21.02;;;;;;;15.16;44.56;102766.06;5075603;28;20044;-58
2022/03/24 02:31:49;;;;;;;52.75;21.48;;;;;;;15.00;45.20;102769.72;5082787;28;20039;-59
2022/03/24 02:37:01;;;;;;;50.65;21.17;;;;;;;14.92;46.28;102765.22;5091934;28;20040;-56
2022/03/24 02:39:28;;;;;;;54.25;21.33;;;;;;;14.88;46.71;102770.13;5080104;28;20036;-56
2022/03/24 02:41:56;;;;;;;48.90;21.75;;;;;;;14.93;46.82;102764.19;5087514;28;20047;-58
2022/03/24 02:44:30;;;;;;;45.65;21.42;;;;;;;14.85;47.46;102765.06;5087456;28;20040;-56
2022/03/24 02:46:57;;;;;;;51.25;22.58;;;;;;;14.82;47.71;102770.81;5078839;28;20100;-59
2022/03/24 02:49:25;;;;;;;50.40;21.15;;;;;;;14.83;47.94;102768.97;5062940;28;20041;-56
2022/03/24 02:51:53;;;;;;;59.75;22.40;;;;;;;14.79;48.09;102770.34;5086979;28;20036;-59
2022/03/24 02:54:20;;;;;;;56.35;22.63;;;;;;;14.67;48.52;102761.78;5086689;28;20040;-59
2022/03/24 02:56:45;;;;;;;58.38;23.13;;;;;;;14.86;48.38;102763.22;5079892;28;20062;-56
2022/03/24 02:59:12;;;;;;;53.53;24.10;;;;;;;14.64;49.37;102762.97;5090235;28;20060;-57
2022/03/24 03:01:42;;;;;;;60.67;23.73;;;;;;;14.41;50.93;102769.13;5080645;28;20297;-58
2022/03/24 03:04:09;;;;;;;53.47;23.75;;;;;;;14.62;50.62;102765.00;5085464;28;20029;-54
2022/03/24 03:06:34;;;;;;;53.65;22.88;;;;;;;14.58;50.92;102769.88;5088669;28;20089;-58
2022/03/24 03:09:02;;;;;;;60.40;22.90;;;;;;;14.62;50.33;102765.00;5078213;28;20060;-58
2022/03/24 03:11:31;;;;;;;53.75;23.48;;;;;;;14.79;49.75;102764.97;5090629;28;20048;-58
2022/03/24 03:13:58;;;;;;;47.67;21.98;;;;;;;14.75;49.63;102773.38;5082992;28;20059;-56
2022/03/24 03:16:24;;;;;;;49.20;22.45;;;;;;;14.54;50.37;102773.94;5082887;28;20040;-56
2022/03/24 03:18:49;;;;;;;54.42;22.77;;;;;;;14.57;50.66;102767.38;5089316;28;20151;-57
2022/03/24 03:21:16;;;;;;;63.53;24.57;;;;;;;14.58;50.46;102766.38;5078010;28;20089;-58
2022/03/24 03:23:43;;;;;;;;;;;;;;;14.51;50.65;102768.91;5089032;28;20033;-59
2022/03/24 03:26:11;;;;;;;47.45;20.40;;;;;;;14.45;50.85;102765.06;5084696;28;19912;-58
2022/03/24 03:28:37;;;;;;;49.63;22.90;;;;;;;14.44;50.70;102768.78;5080894;28;20033;-58
2022/03/24 03:31:03;;;;;;;49.42;23.17;;;;;;;14.42;51.17;102764.59;5091250;28;20032;-58
2022/03/24 03:33:29;;;;;;;;;;;;;;;14.38;51.54;102766.78;5079268;28;20085;-57
2022/03/24 03:35:55;;;;;;;59.30;23.00;;;;;;;14.48;51.07;102772.78;5086595;28;19944;-59
2022/03/24 03:38:21;;;;;;;58.13;23.48;;;;;;;14.56;50.65;102771.91;5085982;28;20116;-56
2022/03/24 03:40:47;;;;;;;46.33;22.63;;;;;;;14.61;50.50;102768.72;5079531;28;20045;-57
2022/03/24 03:43:14;;;;;;;42.78;22.70;;;;;;;14.59;50.45;102773.44;5090524;28;20032;-54
2022/03/24 03:45:42;;;;;;;47.92;23.73;;;;;;;14.64;50.74;102773.75;5073110;28;20088;-54
2022/03/24 03:48:08;;;;;;;53.85;22.42;;;;;;;14.52;51.17;102773.28;5074874;28;20025;-53
2022/03/24 03:50:33;;;;;;;50.43;22.10;;;;;;;14.57;50.76;102773.59;5074915;28;20040;-51
2022/03/24 03:53:00;;;;;;;57.45;22.65;;;;;;;14.65;50.41;102775.41;5074979;28;20282;-56
2022/03/24 03:55:27;;;;;;;52.88;23.88;;;;;;;14.51;50.53;102776.16;5076260;28;20036;-54
2022/03/24 03:57:53;;;;;;;55.80;22.92;;;;;;;14.41;50.68;102765.56;5074207;28;20131;-55
2022/03/24 04:03:08;;;;;;;48.40;22.65;;;;;;;14.33;52.17;102775.38;5075771;28;20033;-56
2022/03/24 04:05:34;;;;;;;58.23;24.60;;;;;;;14.34;52.11;102770.84;5073519;28;20029;-53
2022/03/24 04:08:03;;;;;;;48.40;22.23;;;;;;;14.31;52.06;102771.19;5074672;28;20032;-54
2022/03/24 04:10:30;;;;;;;45.03;22.90;;;;;;;14.29;52.36;102775.88;5074613;28;20108;-53
2022/03/24 04:12:59;;;;;;;53.97;23.75;;;;;;;14.31;52.05;102768.50;5073752;28;20304;-51
2022/03/24 04:15:26;;;;;;;46.22;22.83;;;;;;;14.30;51.66;102772.16;5072906;28;20086;-51
2022/03/24 04:17:52;;;;;;;49.20;23.17;;;;;;;14.31;51.22;102766.63;5074432;28;20045;-54
2022/03/24 04:20:20;;;;;;;45.08;22.65;;;;;;;14.33;51.01;102769.97;5074853;28;20101;-49
2022/03/24 04:22:54;;;;;;;52.42;22.58;;;;;;;14.45;50.33;102775.00;5074598;28;20037;-54
2022/03/24 04:25:21;;;;;;;54.60;23.13;;;;;;;14.21;50.44;102768.69;5073647;28;20068;-51
2022/03/24 04:27:50;;;;;;;53.95;22.67;;;;;;;14.07;50.31;102766.69;5072453;28;20033;-54
2022/03/24 04:30:17;;;;;;;53.80;22.30;;;;;;;14.13;49.61;102766.84;5074537;28;20029;-54
2022/03/24 04:32:46;;;;;;;46.08;23.13;;;;;;;14.10;49.55;102764.53;5072751;28;20048;-52
2022/03/24 04:35:13;;;;;;;49.83;21.92;;;;;;;14.08;49.33;102771.91;5075697;28;20048;-52
2022/03/24 04:37:40;;;;;;;52.00;22.40;;;;;;;14.23;48.92;102765.81;5074650;28;20040;-53
2022/03/24 04:40:06;;;;;;;58.72;22.05;;;;;;;14.15;49.14;102770.22;5072953;28;20052;-54
2022/03/24 04:42:33;;;;;;;51.03;22.05;;;;;;;14.04;48.82;102770.56;5074389;28;20092;-54
2022/03/24 04:44:59;;;;;;;50.55;23.30;;;;;;;13.94;49.79;102775.28;5071560;28;20033;-55
2022/03/24 04:47:25;;;;;;;51.53;23.17;;;;;;;13.95;49.97;102774.28;5072426;28;20036;-55
2022/03/24 04:49:51;;;;;;;51.17;22.13;;;;;;;14.00;49.89;102783.53;5074503;28;20092;-55
2022/03/24 04:52:17;;;;;;;51.28;23.30;;;;;;;14.06;49.98;102784.69;5074333;28;20040;-53
2022/03/24 04:54:43;;;;;;;46.20;21.92;;;;;;;14.01;50.38;102779.84;5072308;28;20033;-54
2022/03/24 04:57:08;;;;;;;50.27;23.23;;;;;;;13.94;51.05;102776.13;5075115;28;20097;-55
2022/03/24 04:59:34;;;;;;;43.35;21.25;;;;;;;13.94;51.00;102781.50;5072363;28;20044;-53
2022/03/24 05:02:00;;;;;;;52.67;23.17;;;;;;;13.79;51.45;102770.59;5074184;28;20056;-57
2022/03/24 05:04:25;;;;;;;50.80;22.57;;;;;;;13.79;51.56;102777.84;5074385;28;20273;-54
2022/03/24 05:06:51;;;;;;;52.50;22.40;;;;;;;13.82;51.38;102781.00;5074076;28;20101;-53
2022/03/24 05:09:17;;;;;;;47.67;22.17;;;;;;;13.86;51.22;102782.38;5074009;28;20036;-54
2022/03/24 05:11:43;;;;;;;56.60;23.33;;;;;;;13.84;51.07;102788.94;5073994;28;20025;-56
2022/03/24 05:14:10;;;;;;;46.25;20.35;;;;;;;13.73;51.57;102784.72;5072435;28;20274;-54
2022/03/24 05:16:35;;;;;;;46.13;21.88;;;;;;;13.66;51.84;102783.72;5072415;28;20048;-55
2022/03/24 05:19:01;;;;;;;51.13;20.90;;;;;;;13.63;52.35;102782.22;5074202;28;20037;-55
2022/03/24 05:21:27;;;;;;;50.50;22.87;;;;;;;13.57;53.11;102789.09;5074673;28;20042;-55
2022/03/24 05:23:53;;;;;;;;;;;;;;;13.63;53.29;102787.59;5077809;28;20274;-56
2022/03/24 05:26:20;;;;;;;50.33;21.90;;;;;;;13.55;53.44;102788.41;5075930;28;19923;-55
2022/03/24 05:28:47;;;;;;;45.70;21.17;;;;;;;13.52;53.47;102788.75;5077150;28;20045;-54
2022/03/24 05:31:12;;;;;;;49.25;23.08;;;;;;;13.48;53.91;102790.09;5077332;28;20093;-56
2022/03/24 05:33:39;;;;;;;52.30;22.73;;;;;;;13.40;54.09;102790.91;5073310;28;20029;-56
2022/03/24 05:36:05;;;;;;;54.07;22.07;;;;;;;13.51;53.53;102787.06;5077177;28;20064;-55
2022/03/24 05:38:31;;;;;;;50.47;22.63;;;;;;;13.51;53.56;102783.56;5077812;28;20029;-56
2022/03/24 05:40:57;;;;;;;48.87;22.67;;;;;;;13.42;54.17;102785.38;5092792;28;20064;-55
2022/03/24 05:43:24;;;;;;;50.35;22.80;;;;;;;13.56;53.43;102791.97;5080040;28;20300;-55
2022/03/24 05:45:50;;;;;;;59.65;25.55;;;;;;;13.58;52.96;102792.63;5090178;28;20029;-55
2022/03/24 05:48:16;;;;;;;49.93;21.83;;;;;;;13.54;53.18;102794.81;5086691;28;20043;-55
2022/03/24 05:50:55;;;;;;;53.13;21.35;;;;;;;13.56;53.09;102787.41;5080042;28;20033;-51
2022/03/24 05:53:26;;;;;;;55.95;23.52;;;;;;;13.58;53.30;102792.63;5092994;28;20025;-55
2022/03/24 05:55:52;;;;;;;51.10;21.60;;;;;;;13.53;53.59;102792.31;5083242;28;20078;-54
2022/03/24 05:58:17;;;;;;;52.93;23.57;;;;;;;13.55;53.88;102792.97;5085392;28;20305;-55
2022/03/24 06:00:43;;;;;;;50.03;22.33;;;;;;;13.64;53.84;102799.19;5090057;28;20076;-55
2022/03/24 06:03:09;;;;;;;51.27;22.07;;;;;;;13.62;53.82;102799.34;5079810;28;20037;-54
2022/03/24 06:05:35;;;;;;;51.17;22.43;;;;;;;13.67;54.11;102796.16;5082837;28;20270;-54
2022/03/24 06:08:01;;;;;;;47.53;22.23;;;;;;;13.56;54.89;102795.47;5084310;28;20261;-54
2022/03/24 06:10:28;;;;;;;56.92;24.92;;;;;;;13.58;55.47;102798.00;5084419;28;20051;-55
2022/03/24 06:12:53;;;;;;;58.40;26.00;;;;;;;13.53;55.62;102797.69;5091291;28;20037;-54
2022/03/24 06:15:19;;;;;;;58.90;25.00;;;;;;;13.64;55.26;102800.03;5079189;28;20033;-53
2022/03/24 06:17:45;;;;;;;47.35;21.65;;;;;;;13.68;55.33;102797.84;5090157;28;20289;-56
2022/03/24 06:20:11;;;;;;;57.40;24.20;;;;;;;13.65;56.03;102803.56;5085137;28;20024;-51
2022/03/24 06:22:51;;;;;;;44.35;22.15;;;;;;;13.69;55.76;102803.03;5082880;28;20041;-54
2022/03/24 06:25:18;;;;;;;53.85;23.52;;;;;;;13.79;55.71;102810.09;5092316;28;20048;-51
2022/03/24 06:27:43;;;;;;;;;;;;;;;13.74;56.21;102808.78;5081740;28;20036;-51
2022/03/24 06:30:10;;;;;;;44.80;20.93;;;;;;;13.83;56.20;102812.28;5086976;28;19975;-50
2022/03/24 06:32:35;;;;;;;48.42;22.55;;;;;;;13.96;55.70;102810.94;5088280;28;20060;-52
2022/03/24 06:35:03;;;;;;;45.67;23.30;;;;;;;13.90;56.19;102816.00;5079532;28;20043;-54
2022/03/24 06:37:29;;;;;;;49.63;23.55;;;;;;;13.95;56.37;102814.63;5064981;28;20408;-53
2022/03/24 06:39:55;;;;;;;53.10;24.27;;;;;;;13.97;56.52;102818.84;5076593;28;20033;-57
2022/03/24 06:42:21;;;;;;;56.23;23.70;;;;;;;14.07;55.75;102815.97;5073975;28;20052;-56
2022/03/24 06:44:46;;;;;;;53.70;22.80;;;;;;;14.16;55.93;102809.56;5076228;28;20028;-54
2022/03/24 06:47:12;;;;;;;58.53;25.70;;;;;;;14.22;55.71;102818.81;5077135;28;20102;-54
2022/03/24 06:49:37;;;;;;;55.07;25.73;;;;;;;14.33;55.25;102814.91;5076597;28;20043;-57
2022/03/24 06:52:03;;;;;;;48.53;24.20;;;;;;;14.45;54.21;102818.91;5074520;28;20067;-54
2022/03/24 06:54:29;;;;;;;56.72;24.83;;;;;;;14.49;54.13;102811.34;5075864;28;20083;-54
2022/03/24 06:56:54;;;;;;;53.17;22.88;;;;;;;14.62;52.40;102808.09;5074347;28;20048;-54
2022/03/24 06:59:20;;;;;;;46.83;22.03;;;;;;;14.62;50.70;102816.16;5074368;28;20048;-55
2022/03/24 07:01:45;;;;;;;55.73;25.00;;;;;;;14.68;49.89;102812.75;5074879;28;20331;-53
2022/03/24 07:04:11;;;;;;;46.53;23.10;;;;;;;14.77;49.44;102813.59;5074850;28;20025;-55
2022/03/24 07:06:37;;;;;;;55.00;24.57;;;;;;;14.87;49.22;102814.22;5073908;28;20033;-53
2022/03/24 07:09:03;;;;;;;48.80;21.60;;;;;;;14.96;48.67;102815.03;5074030;28;20027;-54
2022/03/24 07:11:28;;;;;;;57.22;24.52;;;;;;;15.02;48.07;102819.72;5074560;28;20056;-54
2022/03/24 07:13:54;;;;;;;50.63;23.47;;;;;;;15.13;47.72;102820.31;5073700;28;20044;-55
2022/03/24 07:16:19;;;;;;;57.13;24.27;;;;;;;15.17;47.50;102816.25;5073706;28;20120;-56
2022/03/24 07:18:45;;;;;;;52.13;22.77;;;;;;;15.30;47.20;102823.75;5074611;28;20065;-56
2022/03/24 07:21:10;;;;;;;45.80;23.10;;;;;;;15.41;46.69;102822.50;5074498;28;20044;-55
2022/03/24 07:23:36;;;;;;;49.03;22.90;;;;;;;15.32;46.59;102830.66;5090304;28;20068;-57
2022/03/24 07:26:02;;;;;;;46.07;22.53;;;;;;;15.48;46.01;102827.00;5076717;28;20033;-55
2022/03/24 07:28:28;;;;;;;55.28;23.20;;;;;;;15.62;45.44;102825.38;5085640;28;20044;-54
2022/03/24 07:30:53;;;;;;;53.97;23.27;;;;;;;15.69;44.92;102825.50;5079353;28;20400;-55
2022/03/24 07:33:20;;;;;;;58.05;24.08;;;;;;;15.78;44.46;102828.97;5090946;28;20051;-56
2022/03/24 07:35:46;;;;;;;;;;;;;;;15.91;43.97;102831.09;5076667;28;20041;-56
2022/03/24 07:38:11;;;;;;;52.00;22.27;;;;;;;15.92;43.61;102832.75;5083125;28;19959;-55
2022/03/24 07:40:37;;;;;;;56.60;24.70;;;;;;;16.02;43.32;102833.31;5081576;28;20033;-54
2022/03/24 07:43:02;;;;;;;57.47;23.80;;;;;;;16.12;43.20;102835.75;5074119;28;20342;-56
2022/03/24 07:45:28;;;;;;;57.20;22.57;;;;;;;16.27;42.98;102833.09;5091007;28;20032;-55
2022/03/24 07:48:08;;;;;;;52.63;23.95;;;;;;;16.48;42.36;102832.34;5080342;28;20059;-57
2022/03/24 07:50:35;;;;;;;53.40;23.58;;;;;;;16.57;42.15;102832.25;5081773;28;20123;-55
2022/03/24 07:53:13;;;;;;;60.15;24.70;;;;;;;16.82;41.48;102834.66;5076335;28;20040;-51
2022/03/24 07:55:42;;;;;;;56.45;24.25;;;;;;;16.85;41.22;102835.13;5058467;28;20512;-57
2022/03/24 07:58:09;;;;;;;59.40;25.30;;;;;;;16.91;40.96;102833.53;5082049;28;20075;-53
2022/03/24 08:00:35;;;;;;;54.60;24.85;;;;;;;17.05;40.57;102839.97;5081895;28;20040;-55
2022/03/24 08:03:01;;;;;;;49.65;23.10;;;;;;;17.15;40.51;102834.25;5089958;28;20040;-54
2022/03/24 08:05:26;;;;;;;62.80;24.80;;;;;;;17.33;39.87;102836.53;5077166;28;20059;-57
2022/03/24 08:07:54;;;;;;;51.33;23.73;;;;;;;17.45;39.81;102839.56;5087782;28;20064;-54
2022/03/24 08:10:20;;;;;;;56.15;24.10;;;;;;;17.69;39.41;102840.19;5083647;28;20033;-55
2022/03/24 08:12:46;;;;;;;53.00;22.95;;;;;;;17.86;39.52;102840.75;5078030;28;20103;-51
2022/03/24 08:15:12;;;;;;;49.50;20.83;;;;;;;17.98;39.21;102846.47;5090313;28;20044;-55
2022/03/24 08:17:37;;;;;;;52.13;25.58;;;;;;;18.08;39.15;102847.00;5077690;28;20059;-55
2022/03/24 08:20:04;;;;;;;59.20;23.87;;;;;;;17.99;38.76;102845.44;5086406;28;20041;-55
2022/03/24 08:22:32;;;;;;;57.15;23.88;;;;;;;18.18;38.66;102843.94;5085413;28;20272;-57
2022/03/24 08:24:59;;;;;;;50.70;22.58;;;;;;;18.29;38.39;102850.69;5077919;28;20029;-55
2022/03/24 08:27:25;;;;;;;52.17;21.40;;;;;;;18.32;38.45;102858.41;5089890;28;20033;-55
2022/03/24 08:29:51;;;;;;;48.10;22.40;;;;;;;18.54;38.41;102851.03;5078777;28;20032;-54
2022/03/24 08:32:17;;;;;;;48.88;23.08;;;;;;;18.74;38.02;102851.16;5078770;28;20029;-58
2022/03/24 08:34:43;;;;;;;47.00;24.73;;;;;;;18.93;37.28;102862.28;5074038;28;20044;-57
2022/03/24 08:37:09;;;;;;;49.20;22.67;;;;;;;19.10;36.52;102861.94;5073775;28;20040;-57
2022/03/24 08:39:34;;;;;;;52.10;23.50;;;;;;;19.18;35.34;102859.88;5089718;28;20037;-52
2022/03/24 08:42:00;;;;;;;53.35;20.95;;;;;;;19.32;34.18;102865.34;5080654;28;20032;-53
2022/03/24 08:44:25;;;;;;;45.97;21.07;;;;;;;19.54;32.87;102865.19;5082680;28;20048;-56
2022/03/24 08:46:51;;;;;;;50.37;21.77;;;;;;;19.67;30.87;102869.81;5072757;28;20055;-55
2022/03/24 08:49:18;;;;;;;49.53;21.90;;;;;;;19.90;30.75;102872.09;5072816;28;20029;-58
2022/03/24 08:51:44;;;;;;;;;;;;;;;20.23;29.92;102876.72;5072958;28;20033;-55
2022/03/24 08:54:09;;;;;;;41.17;19.80;;;;;;;20.34;28.36;102877.97;5072735;28;19936;-56
2022/03/24 08:56:35;;;;;;;35.60;19.27;;;;;;;20.71;27.33;102880.16;5073354;28;20036;-56
2022/03/24 08:59:00;;;;;;;42.10;21.53;;;;;;;21.16;27.57;102879.38;5076916;28;20420;-53
2022/03/24 09:01:28;;;;;;;28.17;17.50;;;;;;;21.52;26.63;102877.06;5078831;28;20127;-56
2022/03/24 09:03:54;;;;;;;32.83;18.10;;;;;;;21.73;25.85;102879.44;5084558;28;20062;-55
2022/03/24 09:06:20;;;;;;;33.33;17.30;;;;;;;22.34;25.50;102887.06;5086556;28;20270;-55
2022/03/24 09:08:45;;;;;;;32.65;18.55;;;;;;;23.13;23.43;102888.28;5090252;28;20032;-56
2022/03/24 09:11:11;;;;;;;33.73;18.23;;;;;;;23.72;24.15;102888.50;5078013;28;20047;-55
2022/03/24 09:13:36;;;;;;;36.30;18.92;;;;;;;24.25;23.90;102902.34;5091029;28;20280;-57
2022/03/24 09:16:02;;;;;;;27.17;15.75;;;;;;;24.76;23.49;102896.34;5081737;28;20100;-56
2022/03/24 09:18:27;;;;;;;24.27;14.25;;;;;;;25.13;24.25;102900.63;5085458;28;20033;-53
2022/03/24 09:20:52;;;;;;;23.52;13.82;;;;;;;25.62;24.15;102895.53;5090350;28;20040;-56
2022/03/24 09:23:18;;;;;;;24.63;12.60;;;;;;;25.96;23.33;102902.06;5079725;28;20033;-55
2022/03/24 09:25:44;;;;;;;23.95;15.40;;;;;;;26.30;22.22;102893.84;5091996;28;20043;-53
2022/03/24 09:28:10;;;;;;;28.38;16.60;;;;;;;26.57;20.74;102895.84;5084887;28;20051;-57
2022/03/24 09:30:36;;;;;;;21.52;11.93;;;;;;;26.95;21.98;102905.09;5084882;28;20112;-56
2022/03/24 09:33:01;;;;;;;;;;;;;;;27.47;21.42;102903.69;5092439;28;20025;-54
2022/03/24 09:35:27;;;;;;;29.20;17.87;;;;;;;28.15;19.57;102896.84;5079976;28;19923;-56
2022/03/24 09:37:52;;;;;;;;;;;;;;;28.42;21.04;102912.41;5090968;28;20021;-55
2022/03/24 09:40:17;;;;;;;23.27;13.30;;;;;;;28.97;20.61;102909.31;5085434;28;19958;-57
2022/03/24 09:42:43;;;;;;;;;;;;;;;29.03;19.13;102910.97;5083694;28;20021;-54
2022/03/24 09:45:11;;;;;;;23.17;16.07;;;;;;;29.73;20.12;102906.09;5092580;28;19983;-55
2022/03/24 09:47:37;;;;;;;29.73;15.23;;;;;;;30.13;19.66;102901.66;5063142;28;20036;-55
2022/03/24 09:50:04;;;;;;;23.30;15.73;;;;;;;30.01;19.56;102906.66;5096964;28;20044;-56
2022/03/24 09:52:29;;;;;;;22.27;15.63;;;;;;;30.47;18.55;102909.31;5085390;28;20086;-56
2022/03/24 09:54:56;;;;;;;22.23;15.13;;;;;;;30.68;19.65;102900.13;5090330;28;20033;-57
2022/03/24 09:57:21;;;;;;;27.30;14.07;;;;;;;30.96;18.64;102904.13;5079010;28;20112;-55
2022/03/24 09:59:47;;;;;;;30.13;17.90;;;;;;;31.80;16.80;102905.16;5091236;28;20504;-56
2022/03/24 10:02:13;;;;;;;31.40;17.98;;;;;;;32.27;17.25;102908.25;5083350;28;20024;-58
2022/03/24 10:04:52;;;;;;;26.70;17.20;;;;;;;32.19;17.84;102909.72;5083948;28;20033;-57
2022/03/24 10:07:19;;;;;;;25.58;17.25;;;;;;;32.62;15.49;102908.13;5091622;28;20028;-55
2022/03/24 10:09:48;;;;;;;25.50;18.23;;;;;;;33.13;15.32;102911.31;5080571;28;20090;-55
2022/03/24 10:12:19;;;;;;;29.35;17.63;;;;;;;33.56;16.72;102905.66;5087543;28;20035;-56
2022/03/24 10:14:45;;;;;;;28.83;17.60;;;;;;;33.91;14.48;102913.63;5088586;28;20423;-57
2022/03/24 10:17:12;;;;;;;27.88;17.00;;;;;;;34.07;15.21;102911.41;5079345;28;20044;-55
2022/03/24 10:19:38;;;;;;;31.95;17.05;;;;;;;34.52;15.66;102904.41;5062675;28;20040;-57
2022/03/24 10:22:08;;;;;;;26.20;16.88;;;;;;;34.51;14.32;102903.59;5088766;28;20063;-53
2022/03/24 10:24:40;;;;;;;27.73;18.08;;;;;;;34.93;13.50;102903.50;5087202;28;20048;-58
2022/03/24 10:27:05;;;;;;;26.08;16.02;;;;;;;34.38;14.55;102896.91;5095714;28;20033;-55
2022/03/24 10:29:33;;;;;;;27.42;16.13;;;;;;;34.84;15.54;102895.06;5079011;28;20063;-57
2022/03/24 10:32:02;;;;;;;19.75;12.63;;;;;;;34.39;17.53;102897.72;5089145;28;20033;-57
2022/03/24 10:34:29;;;;;;;24.33;13.63;;;;;;;34.98;16.20;102897.00;5085750;28;20069;-57
2022/03/24 10:36:55;;;;;;;22.42;15.05;;;;;;;34.78;14.59;102887.16;5081361;28;20048;-58
2022/03/24 10:39:24;;;;;;;20.15;13.43;;;;;;;33.27;15.55;102889.19;5091367;28;20033;-56
2022/03/24 10:41:50;;;;;;;27.73;15.18;;;;;;;34.51;14.57;102897.22;5080642;28;20032;-56
2022/03/24 10:44:15;;;;;;;29.65;15.73;;;;;;;35.55;13.59;102896.47;5086804;28;20044;-58
2022/03/24 10:46:42;;;;;;;24.75;14.82;;;;;;;35.91;13.11;102902.19;5087550;28;20032;-57
2022/03/24 10:49:18;;;;;;;29.50;14.82;;;;;;;35.81;13.15;102892.97;5079135;28;20063;-56
2022/03/24 10:51:46;;;;;;;23.80;13.57;;;;;;;36.49;13.82;102896.66;5063712;28;20028;-57
2022/03/24 10:54:15;;;;;;;23.90;14.48;;;;;;;36.97;12.05;102900.44;5086870;28;20029;-57
2022/03/24 10:57:11;;;;;;;22.67;14.10;;;;;;;37.15;13.28;102898.50;5086971;28;20100;-56
2022/03/24 10:59:43;;;;;;;23.50;15.50;;;;;;;37.22;12.43;102901.59;5076177;28;20104;-58
2022/03/24 11:02:09;;;;;;;24.67;15.60;;;;;;;37.19;12.16;102893.91;5087224;28;20041;-58
2022/03/24 11:04:35;;;;;;;28.10;15.23;;;;;;;37.51;12.50;102897.28;5086197;28;20044;-59
2022/03/24 11:07:00;;;;;;;22.33;13.50;;;;;;;37.64;13.62;102903.81;5080108;28;20120;-59
2022/03/24 11:09:31;;;;;;;27.42;14.40;;;;;;;38.42;11.49;102901.81;5090490;28;20032;-59
2022/03/24 11:12:24;;;;;;;29.15;14.45;;;;;;;39.18;11.30;102898.25;5074046;28;20043;-58
2022/03/24 11:14:51;;;;;;;25.10;14.93;;;;;;;39.33;10.93;102890.34;5072509;28;20049;-56
2022/03/24 11:17:23;;;;;;;20.42;13.68;;;;;;;39.53;10.55;102899.84;5073711;28;20032;-56